Time;durP1;ratioP1;P1;durP2;ratioP2;P2;SDS_P1;SDS_P2;PMS_P1;PMS_P2;Temp;Humidity;BMP_temperature;BMP_pressure;BME280_temperature;BME280_humidity;BME280_pressure;Samples;Min_cycle;Max_cycle;Signal;HPM_P1;HPM_P2
2023/12/03 00:02:21;;;;;;;31.75;17.23;;;-0.40;96.80;;;;;;5095025;27;20419;-73
2023/12/03 00:04:47;;;;;;;34.25;17.77;;;-0.40;96.80;;;;;;5108430;27;20469;-73
2023/12/03 00:07:14;;;;;;;32.27;16.97;;;-0.40;96.70;;;;;;5112451;27;20486;-73
2023/12/03 00:09:39;;;;;;;34.67;17.52;;;-0.40;96.70;;;;;;5112966;27;20415;-73
2023/12/03 00:12:06;;;;;;;31.83;16.57;;;-0.50;96.80;;;;;;5110700;27;20424;-73
2023/12/03 00:14:32;;;;;;;32.17;16.67;;;-0.50;96.60;;;;;;5113192;27;20923;-73
2023/12/03 00:16:57;;;;;;;31.77;16.55;;;-0.50;96.60;;;;;;5111612;27;20402;-73
2023/12/03 00:19:24;;;;;;;31.23;16.13;;;-0.50;96.60;;;;;;5111010;27;20832;-73
2023/12/03 00:21:50;;;;;;;29.98;15.73;;;-0.50;96.60;;;;;;5112318;27;20479;-73
2023/12/03 00:24:16;;;;;;;29.77;15.38;;;-0.50;96.60;;;;;;5099140;27;20430;-72
2023/12/03 00:26:42;;;;;;;32.92;16.25;;;-0.60;96.60;;;;;;5131308;27;20437;-73
2023/12/03 00:29:08;;;;;;;27.13;14.73;;;-0.60;96.70;;;;;;5130091;27;20428;-73
2023/12/03 00:31:34;;;;;;;27.30;14.75;;;-0.60;96.70;;;;;;5106781;28;20475;-73
2023/12/03 00:34:02;;;;;;;24.23;14.15;;;-0.60;96.80;;;;;;5110464;27;20425;-73
2023/12/03 00:36:28;;;;;;;27.08;14.30;;;-0.60;96.70;;;;;;5112011;27;20485;-73
2023/12/03 00:38:54;;;;;;;27.20;14.75;;;-0.60;96.60;;;;;;5111172;27;20423;-73
2023/12/03 00:41:19;;;;;;;24.75;14.38;;;-0.60;96.60;;;;;;5110611;27;21073;-73
2023/12/03 00:43:45;;;;;;;26.37;14.37;;;-0.70;96.60;;;;;;5110960;27;20437;-73
2023/12/03 00:46:10;;;;;;;23.83;13.43;;;-0.60;96.80;;;;;;5112608;27;20409;-73
2023/12/03 00:48:36;;;;;;;22.13;13.48;;;-0.60;96.90;;;;;;5111776;27;20419;-73
2023/12/03 00:51:01;;;;;;;24.83;13.60;;;-0.60;96.90;;;;;;5111432;27;20451;-73
2023/12/03 00:53:27;;;;;;;26.33;14.30;;;-0.60;96.90;;;;;;5110474;27;20785;-73
2023/12/03 00:55:54;;;;;;;23.42;13.40;;;-0.60;96.90;;;;;;5111721;27;20409;-73
2023/12/03 00:58:20;;;;;;;24.97;12.93;;;-0.60;96.80;;;;;;5111514;27;20472;-73
2023/12/03 01:00:45;;;;;;;21.20;12.80;;;-0.70;96.80;;;;;;5111910;27;20857;-73
2023/12/03 01:03:11;;;;;;;23.63;13.60;;;-0.70;96.70;;;;;;5111526;27;20423;-73
2023/12/03 01:05:37;;;;;;;22.13;13.23;;;-0.70;96.70;;;;;;5124821;27;20806;-73
2023/12/03 01:08:02;;;;;;;18.52;11.82;;;-0.70;96.70;;;;;;5130154;27;20426;-73
2023/12/03 01:10:28;;;;;;;20.90;12.47;;;-0.70;96.70;;;;;;5094233;27;20457;-73
2023/12/03 01:12:54;;;;;;;24.33;13.40;;;-0.70;96.70;;;;;;5100922;27;20448;-73
2023/12/03 01:15:19;;;;;;;23.55;13.18;;;-0.80;96.50;;;;;;5128617;27;20787;-73
2023/12/03 01:17:45;;;;;;;21.83;13.07;;;-0.80;96.50;;;;;;5129490;27;20422;-73
2023/12/03 01:20:11;;;;;;;19.00;12.23;;;-0.80;96.60;;;;;;5111252;27;20497;-73
2023/12/03 01:22:36;;;;;;;22.20;12.38;;;-0.80;96.50;;;;;;5103417;27;20829;-73
2023/12/03 01:25:02;;;;;;;20.25;12.57;;;-0.80;96.50;;;;;;5110638;27;20469;-73
2023/12/03 01:27:28;;;;;;;21.02;12.63;;;-0.90;96.50;;;;;;5110676;27;20426;-73
2023/12/03 01:29:53;;;;;;;21.37;12.90;;;-0.90;96.60;;;;;;5110093;27;20947;-73
2023/12/03 01:32:19;;;;;;;22.25;13.43;;;-0.80;96.60;;;;;;5106872;27;20422;-73
2023/12/03 01:34:44;;;;;;;21.85;13.18;;;-0.80;96.70;;;;;;5128474;27;20419;-73
2023/12/03 01:37:11;;;;;;;23.13;12.83;;;-0.80;96.80;;;;;;5110509;27;20422;-73
2023/12/03 01:39:37;;;;;;;20.57;12.10;;;-0.80;96.80;;;;;;5110803;27;20406;-73
2023/12/03 01:42:03;;;;;;;23.02;13.20;;;-0.80;96.70;;;;;;5126381;27;20438;-73
2023/12/03 01:44:29;;;;;;;21.27;12.73;;;-0.80;96.50;;;;;;5110914;27;20970;-73
2023/12/03 01:46:58;;;;;;;19.90;11.87;;;-0.90;96.40;;;;;;5098739;27;20414;-73
2023/12/03 01:49:24;;;;;;;19.10;11.63;;;-0.90;96.40;;;;;;5110836;27;20538;-73
2023/12/03 01:51:50;;;;;;;21.23;12.57;;;-0.90;96.40;;;;;;5104060;28;21042;-73
2023/12/03 01:54:16;;;;;;;19.88;12.23;;;-0.90;96.40;;;;;;5102265;27;20921;-73
2023/12/03 01:56:41;;;;;;;19.97;11.83;;;-0.90;96.50;;;;;;5106820;27;20419;-73
2023/12/03 01:59:07;;;;;;;21.33;12.85;;;-0.90;96.50;;;;;;5107363;28;20425;-73
2023/12/03 02:01:32;;;;;;;21.65;12.15;;;-0.90;96.80;;;;;;5103326;28;20437;-73
2023/12/03 02:03:58;;;;;;;21.63;13.20;;;-0.90;96.50;;;;;;5097796;28;20519;-73
2023/12/03 02:06:24;;;;;;;22.47;12.70;;;-0.90;96.40;;;;;;5106935;28;20511;-73
2023/12/03 02:08:51;;;;;;;20.88;12.50;;;-0.90;96.30;;;;;;5107209;28;20416;-73
2023/12/03 02:11:17;;;;;;;21.83;12.63;;;-0.90;96.30;;;;;;5106961;28;20416;-73
2023/12/03 02:13:43;;;;;;;16.80;10.80;;;-1.00;96.30;;;;;;5108597;28;20404;-73
2023/12/03 02:16:09;;;;;;;19.55;11.25;;;-1.00;96.20;;;;;;5104420;28;20420;-73
2023/12/03 02:18:35;;;;;;;19.02;10.93;;;-1.00;96.20;;;;;;5107459;28;20416;-73
2023/12/03 02:21:01;;;;;;;20.17;11.88;;;-1.00;96.00;;;;;;5104307;28;20428;-73
2023/12/03 02:23:30;;;;;;;19.47;12.03;;;-1.00;96.00;;;;;;5108641;28;20454;-73
2023/12/03 02:25:56;;;;;;;18.88;11.90;;;-1.10;96.00;;;;;;5106775;28;20431;-73
2023/12/03 02:28:22;;;;;;;18.27;11.43;;;-1.00;96.40;;;;;;5107102;28;20918;-73
2023/12/03 02:30:47;;;;;;;21.13;11.83;;;-1.00;96.20;;;;;;5104132;28;20505;-73
2023/12/03 02:33:13;;;;;;;21.20;12.20;;;-1.00;96.20;;;;;;5103251;28;20436;-73
2023/12/03 02:35:39;;;;;;;19.30;12.25;;;-1.00;96.20;;;;;;5103743;28;21551;-73
2023/12/03 02:38:04;;;;;;;22.63;12.47;;;-1.00;96.10;;;;;;5105588;28;20420;-73
2023/12/03 02:40:35;;;;;;;21.40;12.03;;;-1.00;96.10;;;;;;5106117;28;20481;-73
2023/12/03 02:43:01;;;;;;;19.73;11.05;;;-1.00;96.00;;;;;;5101394;28;20918;-73
2023/12/03 02:45:26;;;;;;;17.33;10.80;;;-1.00;95.90;;;;;;5108046;28;20410;-73
2023/12/03 02:47:52;;;;;;;21.13;12.23;;;-1.00;95.80;;;;;;5106372;28;20427;-73
2023/12/03 02:50:18;;;;;;;19.40;10.93;;;-1.00;95.90;;;;;;5107910;28;20408;-73
2023/12/03 02:52:43;;;;;;;17.87;11.27;;;-1.10;95.80;;;;;;5103471;28;20424;-73
2023/12/03 02:55:09;;;;;;;20.02;11.57;;;-1.10;95.70;;;;;;5108225;28;20392;-73
2023/12/03 02:57:35;;;;;;;20.53;12.13;;;-1.10;95.70;;;;;;5104025;28;20467;-73
2023/12/03 03:00:06;;;;;;;20.08;11.77;;;-1.10;95.70;;;;;;5118549;27;20427;-73
2023/12/03 03:02:36;;;;;;;20.73;11.88;;;-1.10;95.70;;;;;;5096900;28;20951;-73
2023/12/03 03:05:02;;;;;;;19.85;11.35;;;-1.10;95.80;;;;;;5132108;27;20761;-73
2023/12/03 03:07:27;;;;;;;19.97;11.67;;;-1.20;95.70;;;;;;5113447;27;20456;-73
2023/12/03 03:09:53;;;;;;;19.13;11.63;;;-1.20;95.60;;;;;;5132530;27;20409;-73
2023/12/03 03:12:19;;;;;;;20.63;11.77;;;-1.20;95.50;;;;;;5129061;27;20406;-73
2023/12/03 03:14:44;;;;;;;20.27;12.38;;;-1.20;95.60;;;;;;5132348;27;20837;-73
2023/12/03 03:17:10;;;;;;;20.67;12.17;;;-1.20;95.70;;;;;;5095512;27;20800;-73
2023/12/03 03:19:36;;;;;;;19.57;11.73;;;-1.20;95.60;;;;;;5113237;27;20426;-73
2023/12/03 03:22:01;;;;;;;25.48;13.45;;;-1.20;95.50;;;;;;5124102;27;21296;-73
2023/12/03 03:24:27;;;;;;;26.88;13.68;;;-1.20;95.60;;;;;;5132093;27;20430;-73
2023/12/03 03:26:53;;;;;;;23.63;13.85;;;-1.20;95.60;;;;;;5108639;27;20411;-73
2023/12/03 03:29:18;;;;;;;21.87;13.13;;;-1.20;95.90;;;;;;5124995;27;21244;-73
2023/12/03 03:31:44;;;;;;;26.50;13.48;;;-1.20;95.90;;;;;;5113004;27;20430;-73
2023/12/03 03:34:10;;;;;;;31.02;14.43;;;-1.10;95.90;;;;;;5131966;27;20422;-73
2023/12/03 03:36:36;;;;;;;28.95;14.48;;;-1.10;96.00;;;;;;5113031;27;20410;-73
2023/12/03 03:39:02;;;;;;;38.75;15.27;;;-1.10;96.00;;;;;;5091945;27;20432;-73
2023/12/03 03:41:27;;;;;;;27.40;13.48;;;-1.00;96.10;;;;;;5113745;27;20433;-73
2023/12/03 03:43:53;;;;;;;108.10;20.47;;;-1.00;96.10;;;;;;5130632;27;20479;-73
2023/12/03 03:46:18;;;;;;;100.55;19.48;;;-1.00;96.00;;;;;;5112321;27;20418;-73
2023/12/03 03:48:44;;;;;;;133.30;22.73;;;-1.00;96.00;;;;;;5111313;27;21132;-73
2023/12/03 03:51:09;;;;;;;106.07;21.07;;;-0.90;96.10;;;;;;5127143;27;20489;-73
2023/12/03 03:53:35;;;;;;;87.10;19.75;;;-0.90;96.10;;;;;;5112708;27;20415;-73
2023/12/03 03:56:08;;;;;;;87.20;20.42;;;-0.80;96.30;;;;;;5112926;27;20801;-73
2023/12/03 03:58:35;;;;;;;128.10;24.13;;;-0.80;96.30;;;;;;5112312;27;20466;-73
2023/12/03 04:01:04;;;;;;;82.10;22.20;;;-0.80;96.40;;;;;;5108458;27;20418;-73
2023/12/03 04:03:30;;;;;;;58.17;19.85;;;-0.70;96.50;;;;;;5111751;27;20426;-73
2023/12/03 04:05:55;;;;;;;74.63;21.58;;;-0.70;96.60;;;;;;5131066;27;20395;-73
2023/12/03 04:08:21;;;;;;;44.07;19.57;;;-0.70;96.60;;;;;;5111978;27;20475;-73
2023/12/03 04:10:46;;;;;;;38.90;18.10;;;-0.60;96.60;;;;;;5094914;27;20418;-73
2023/12/03 04:13:12;;;;;;;31.03;16.43;;;-0.70;96.40;;;;;;5129861;27;20427;-73
2023/12/03 04:15:37;;;;;;;41.47;18.17;;;-0.70;96.50;;;;;;5130902;27;20391;-73
2023/12/03 04:18:03;;;;;;;37.80;17.38;;;-0.70;96.20;;;;;;5111657;27;20424;-73
2023/12/03 04:20:29;;;;;;;38.60;18.73;;;-0.70;96.20;;;;;;5112376;27;20401;-73
2023/12/03 04:22:54;;;;;;;65.97;20.13;;;-0.70;96.20;;;;;;5095270;27;20538;-73
2023/12/03 04:25:20;;;;;;;93.53;22.35;;;-0.70;96.20;;;;;;5111538;27;20497;-73
2023/12/03 04:27:45;;;;;;;77.22;20.30;;;-0.70;96.20;;;;;;5130536;27;20414;-73
2023/12/03 04:30:11;;;;;;;110.93;23.73;;;-0.70;96.20;;;;;;5130389;27;20415;-73
2023/12/03 04:32:37;;;;;;;91.32;22.02;;;-0.70;96.30;;;;;;5095767;27;20409;-73
2023/12/03 04:35:03;;;;;;;81.80;20.23;;;-0.70;96.20;;;;;;5129624;27;20478;-73
2023/12/03 04:37:28;;;;;;;61.67;20.00;;;-0.70;96.10;;;;;;5130560;27;20572;-73
2023/12/03 04:39:54;;;;;;;58.28;19.67;;;-0.70;96.10;;;;;;5128827;27;20415;-73
2023/12/03 04:42:20;;;;;;;80.97;22.20;;;-0.70;96.20;;;;;;5130439;27;20526;-73
2023/12/03 04:44:45;;;;;;;69.45;19.75;;;-0.70;96.10;;;;;;5129097;27;20427;-73
2023/12/03 04:47:13;;;;;;;62.27;18.83;;;-0.70;96.10;;;;;;5130859;27;20394;-73
2023/12/03 04:49:39;;;;;;;61.22;18.83;;;-0.70;96.10;;;;;;5109937;27;20449;-73
2023/12/03 04:52:05;;;;;;;73.97;19.92;;;-0.70;96.30;;;;;;5130762;27;20398;-73
2023/12/03 04:54:30;;;;;;;125.60;22.30;;;-0.70;96.30;;;;;;5111541;27;20421;-72
2023/12/03 04:56:56;;;;;;;78.73;21.43;;;-0.80;96.40;;;;;;5130417;27;20413;-73
2023/12/03 04:59:22;;;;;;;86.88;22.17;;;-0.70;96.50;;;;;;5125020;27;20502;-73
2023/12/03 05:01:47;;;;;;;90.37;21.50;;;-0.70;96.60;;;;;;5124883;27;20830;-73
2023/12/03 05:04:13;;;;;;;124.87;23.87;;;-0.70;96.60;;;;;;5129994;27;20426;-73
2023/12/03 05:06:38;;;;;;;102.25;23.38;;;-0.70;96.70;;;;;;5128903;27;20850;-73
2023/12/03 05:09:04;;;;;;;125.43;25.57;;;-0.70;96.90;;;;;;5129367;27;20417;-73
2023/12/03 05:11:29;;;;;;;111.43;25.23;;;-0.60;96.90;;;;;;5129769;27;21195;-73
2023/12/03 05:13:55;;;;;;;113.45;24.30;;;-0.50;97.00;;;;;;5129801;27;20395;-73
2023/12/03 05:16:21;;;;;;;136.13;25.93;;;-0.50;97.00;;;;;;5129680;27;20414;-73
2023/12/03 05:18:47;;;;;;;184.37;29.13;;;-0.50;97.10;;;;;;5129278;27;20429;-73
2023/12/03 05:21:13;;;;;;;144.13;28.58;;;-0.40;97.20;;;;;;5127297;27;20459;-73
2023/12/03 05:23:39;;;;;;;210.48;31.52;;;-0.40;97.20;;;;;;5129758;27;20422;-73
2023/12/03 05:26:04;;;;;;;162.80;30.33;;;-0.40;97.20;;;;;;5127797;27;20422;-73
2023/12/03 05:28:30;;;;;;;176.87;30.03;;;-0.40;97.20;;;;;;5127574;27;20427;-73
2023/12/03 05:30:56;;;;;;;259.40;39.57;;;-0.40;97.20;;;;;;5110122;27;20418;-73
2023/12/03 05:33:22;;;;;;;234.55;38.42;;;-0.40;97.20;;;;;;5094345;27;20919;-73
2023/12/03 05:35:47;;;;;;;193.25;31.45;;;-0.30;97.30;;;;;;5127688;27;20916;-73
2023/12/03 05:38:13;;;;;;;160.07;28.87;;;-0.30;97.20;;;;;;5128626;27;20436;-73
2023/12/03 05:40:38;;;;;;;189.77;31.43;;;-0.30;97.20;;;;;;5129100;27;20451;-72
2023/12/03 05:43:04;;;;;;;214.60;33.28;;;-0.30;97.30;;;;;;5110034;27;20421;-73
2023/12/03 05:45:29;;;;;;;185.47;30.87;;;-0.30;97.20;;;;;;5129601;27;20432;-73
2023/12/03 05:47:55;;;;;;;194.60;32.10;;;-0.30;97.20;;;;;;5110240;27;20419;-73
2023/12/03 05:50:21;;;;;;;190.40;32.58;;;-0.30;97.20;;;;;;5121297;27;20419;-73
2023/12/03 05:52:47;;;;;;;158.20;29.48;;;-0.30;97.20;;;;;;5128347;27;20418;-73
2023/12/03 05:55:13;;;;;;;138.32;26.65;;;-0.30;97.20;;;;;;5121753;27;20419;-73
2023/12/03 05:57:38;;;;;;;222.77;32.30;;;-0.30;97.30;;;;;;5110073;27;20423;-73
2023/12/03 06:00:04;;;;;;;195.50;30.63;;;-0.30;97.30;;;;;;5122656;27;20466;-73
2023/12/03 06:02:33;;;;;;;189.23;31.23;;;-0.30;97.30;;;;;;5109714;27;20478;-73
2023/12/03 06:04:58;;;;;;;170.95;29.35;;;-0.30;97.60;;;;;;5128453;27;20430;-73
2023/12/03 06:07:24;;;;;;;172.95;29.65;;;-0.30;97.30;;;;;;5109928;27;20444;-73
2023/12/03 06:09:49;;;;;;;156.43;29.63;;;-0.30;97.30;;;;;;5110048;27;20422;-73
2023/12/03 06:12:15;;;;;;;161.98;32.00;;;-0.30;97.30;;;;;;5109419;27;20803;-73
2023/12/03 06:14:41;;;;;;;165.57;33.43;;;-0.30;97.30;;;;;;5110691;27;20395;-73
2023/12/03 06:17:06;;;;;;;166.17;34.73;;;-0.30;97.30;;;;;;5109345;27;20434;-73
2023/12/03 06:19:32;;;;;;;151.45;36.58;;;-0.30;97.20;;;;;;5128251;27;20417;-73
2023/12/03 06:21:57;;;;;;;179.85;38.80;;;-0.30;97.20;;;;;;5127277;27;20484;-73
2023/12/03 06:24:25;;;;;;;225.60;42.17;;;-0.30;97.30;;;;;;5109329;27;20438;-73
2023/12/03 06:26:50;;;;;;;210.57;42.78;;;-0.40;97.30;;;;;;5104920;27;20482;-73
2023/12/03 06:29:16;;;;;;;241.80;45.20;;;-0.40;97.30;;;;;;5109095;27;20548;-73
2023/12/03 06:31:41;;;;;;;260.97;46.87;;;-0.30;97.40;;;;;;5109854;27;20407;-73
2023/12/03 06:34:07;;;;;;;254.50;46.88;;;-0.30;97.50;;;;;;5127349;27;20430;-73
2023/12/03 06:36:33;;;;;;;222.00;43.33;;;-0.30;97.60;;;;;;5093762;28;20784;-73
2023/12/03 06:38:58;;;;;;;257.63;48.53;;;-0.30;97.70;;;;;;5106098;27;21141;-73
2023/12/03 06:41:24;;;;;;;352.33;56.22;;;-0.30;97.70;;;;;;5108445;27;21017;-73
2023/12/03 06:43:49;;;;;;;334.57;57.70;;;-0.30;97.80;;;;;;5119521;28;20419;-73
2023/12/03 06:46:16;;;;;;;311.60;55.90;;;-0.20;97.80;;;;;;5127998;28;20772;-73
2023/12/03 06:48:42;;;;;;;319.93;55.20;;;-0.20;97.90;;;;;;5109435;28;20410;-73
2023/12/03 06:51:09;;;;;;;320.08;56.47;;;-0.20;98.00;;;;;;5128520;28;20452;-73
2023/12/03 06:53:35;;;;;;;311.17;54.72;;;-0.10;98.10;;;;;;5126755;28;20422;-73
2023/12/03 06:56:01;;;;;;;386.13;59.87;;;-0.10;98.10;;;;;;5092597;28;20406;-73
2023/12/03 06:58:26;;;;;;;346.30;60.03;;;-0.10;98.10;;;;;;5109674;28;20407;-73
2023/12/03 07:00:52;;;;;;;317.27;56.53;;;-0.10;98.20;;;;;;5127863;28;20410;-73
2023/12/03 07:03:17;;;;;;;343.37;54.97;;;0.00;98.30;;;;;;5128043;28;20407;-73
2023/12/03 07:05:43;;;;;;;408.98;62.42;;;0.00;98.40;;;;;;5127487;27;20438;-73
2023/12/03 07:08:09;;;;;;;371.38;59.03;;;0.10;98.50;;;;;;5128574;27;20390;-73
2023/12/03 07:10:34;;;;;;;455.70;69.93;;;0.10;98.50;;;;;;5107585;28;20426;-73
2023/12/03 07:13:00;;;;;;;425.63;65.33;;;0.10;98.60;;;;;;5109356;28;20415;-73
2023/12/03 07:15:25;;;;;;;410.48;63.90;;;0.10;98.60;;;;;;5127352;28;20425;-73
2023/12/03 07:17:51;;;;;;;378.87;58.17;;;0.20;98.90;;;;;;5128299;28;20963;-73
2023/12/03 07:20:18;;;;;;;426.30;69.13;;;0.20;98.70;;;;;;5126188;27;20422;-73
2023/12/03 07:22:44;;;;;;;436.65;69.38;;;0.20;98.70;;;;;;5109967;28;20410;-73
2023/12/03 07:25:09;;;;;;;339.08;60.13;;;0.30;98.80;;;;;;5126359;27;20916;-73
2023/12/03 07:27:35;;;;;;;448.70;68.67;;;0.30;98.90;;;;;;5109529;28;20809;-73
2023/12/03 07:30:01;;;;;;;335.40;60.50;;;0.30;98.80;;;;;;5123379;28;20418;-73
2023/12/03 07:32:26;;;;;;;396.35;63.72;;;0.30;98.90;;;;;;5128448;28;20402;-73
2023/12/03 07:34:53;;;;;;;453.77;71.47;;;0.40;98.90;;;;;;5107870;28;20773;-73
2023/12/03 07:37:18;;;;;;;436.48;63.05;;;0.40;99.00;;;;;;5109779;28;20490;-73
2023/12/03 07:39:44;;;;;;;392.20;63.42;;;0.40;99.10;;;;;;5108089;28;20900;-73
2023/12/03 07:42:10;;;;;;;375.35;59.55;;;0.50;99.10;;;;;;5109420;28;20414;-73
2023/12/03 07:44:35;;;;;;;536.30;76.47;;;0.50;99.20;;;;;;5126644;28;20491;-73
2023/12/03 07:47:01;;;;;;;369.33;61.00;;;0.60;99.30;;;;;;5109096;28;20827;-73
2023/12/03 07:49:27;;;;;;;468.05;71.53;;;0.60;99.30;;;;;;5109599;27;20411;-73
2023/12/03 07:51:53;;;;;;;477.92;69.60;;;0.60;99.30;;;;;;5130522;27;20398;-73
2023/12/03 07:54:19;;;;;;;460.10;69.60;;;0.60;99.30;;;;;;5112290;27;20908;-73
2023/12/03 07:56:44;;;;;;;482.98;70.43;;;0.60;99.40;;;;;;5111580;27;20923;-73
2023/12/03 07:59:11;;;;;;;399.00;62.65;;;0.70;99.30;;;;;;5108730;28;20432;-73
2023/12/03 08:01:36;;;;;;;318.55;54.38;;;0.70;99.40;;;;;;5100903;28;20428;-73
2023/12/03 08:04:03;;;;;;;308.95;49.90;;;0.70;99.40;;;;;;5108317;28;20438;-73
2023/12/03 08:06:32;;;;;;;351.23;54.60;;;0.70;99.40;;;;;;5108443;28;20477;-73
2023/12/03 08:08:59;;;;;;;292.02;46.88;;;0.70;99.30;;;;;;5108603;27;20420;-73
2023/12/03 08:11:25;;;;;;;255.25;42.30;;;0.70;99.40;;;;;;5101234;28;20962;-74
2023/12/03 08:13:54;;;;;;;347.40;47.80;;;0.80;99.30;;;;;;5106941;28;20436;-75
2023/12/03 08:16:19;;;;;;;294.60;43.40;;;0.80;99.30;;;;;;5106121;28;20511;-74
2023/12/03 08:18:45;;;;;;;331.53;45.83;;;0.80;99.30;;;;;;5109093;28;20483;-74
2023/12/03 08:21:11;;;;;;;253.90;41.93;;;0.80;99.30;;;;;;5104641;28;20461;-74
2023/12/03 08:23:36;;;;;;;227.57;39.25;;;0.70;99.30;;;;;;5104072;28;20484;-74
2023/12/03 08:26:03;;;;;;;344.80;44.63;;;0.80;99.30;;;;;;5099541;28;20961;-73
2023/12/03 08:28:29;;;;;;;287.03;41.17;;;0.80;99.40;;;;;;5101138;28;20390;-73
2023/12/03 08:30:55;;;;;;;306.70;42.20;;;0.80;99.50;;;;;;5090777;28;20406;-73
2023/12/03 08:33:21;;;;;;;363.90;45.77;;;0.80;99.50;;;;;;5100431;28;21153;-74
2023/12/03 08:35:46;;;;;;;338.70;42.37;;;0.80;99.50;;;;;;5107936;28;20404;-72
2023/12/03 08:38:12;;;;;;;427.20;49.15;;;0.80;99.60;;;;;;5100043;28;20919;-74
2023/12/03 08:40:38;;;;;;;335.33;44.70;;;0.80;99.70;;;;;;5103850;28;20436;-73
2023/12/03 08:43:04;;;;;;;359.85;45.58;;;0.80;99.70;;;;;;5107097;28;20400;-74
2023/12/03 08:45:29;;;;;;;386.48;46.13;;;0.90;99.80;;;;;;5104247;28;20416;-72
2023/12/03 08:47:56;;;;;;;350.67;43.57;;;0.80;99.70;;;;;;5102705;28;20458;-73
2023/12/03 08:50:27;;;;;;;416.27;47.92;;;0.90;99.80;;;;;;5096253;28;20410;-73
2023/12/03 08:52:56;;;;;;;374.50;45.10;;;0.90;99.80;;;;;;5104624;28;20408;-72
2023/12/03 08:55:21;;;;;;;425.48;48.85;;;0.90;99.90;;;;;;5108033;28;20465;-73
2023/12/03 08:57:48;;;;;;;347.23;44.37;;;0.90;99.90;;;;;;5106547;28;20428;-72
2023/12/03 09:00:15;;;;;;;259.25;38.78;;;0.90;99.90;;;;;;5121118;27;20750;-72
2023/12/03 09:02:45;;;;;;;274.38;39.50;;;0.90;99.90;;;;;;5125447;27;20866;-72
2023/12/03 09:05:11;;;;;;;276.10;39.15;;;1.00;99.90;;;;;;5129151;27;21074;-72
2023/12/03 09:07:37;;;;;;;319.95;42.10;;;1.00;99.90;;;;;;5102790;27;20418;-72
2023/12/03 09:10:03;;;;;;;298.67;40.70;;;1.00;99.90;;;;;;5120310;27;20402;-73
2023/12/03 09:12:28;;;;;;;321.45;42.42;;;1.00;99.90;;;;;;5100763;27;20784;-73
2023/12/03 09:14:54;;;;;;;305.87;41.93;;;1.00;99.90;;;;;;5091643;28;20396;-73
2023/12/03 09:17:20;;;;;;;373.53;46.93;;;1.10;99.90;;;;;;5112384;27;20416;-72
2023/12/03 09:19:45;;;;;;;283.80;40.55;;;1.10;99.90;;;;;;5097020;27;20913;-73
2023/12/03 09:22:11;;;;;;;222.93;38.55;;;1.10;99.90;;;;;;5120204;27;20391;-73
2023/12/03 09:24:37;;;;;;;255.52;38.78;;;1.10;99.90;;;;;;5129799;27;20850;-73
2023/12/03 09:27:03;;;;;;;219.00;37.67;;;1.10;99.90;;;;;;5110317;27;22221;-68
2023/12/03 09:29:28;;;;;;;211.50;37.22;;;1.10;99.90;;;;;;5123701;27;20469;-71
2023/12/03 09:31:54;;;;;;;183.75;33.92;;;1.10;99.90;;;;;;5128348;27;20431;-72
2023/12/03 09:34:19;;;;;;;186.27;34.20;;;1.20;99.90;;;;;;5108660;27;20426;-72
2023/12/03 09:36:45;;;;;;;152.20;30.80;;;1.20;99.90;;;;;;5123626;27;20471;-73
2023/12/03 09:39:11;;;;;;;139.43;29.90;;;1.20;99.90;;;;;;5109949;27;20425;-72
2023/12/03 09:41:53;;;;;;;129.73;28.42;;;1.20;99.90;;;;;;5109865;27;20785;-73
2023/12/03 09:44:46;;;;;;;107.90;26.83;;;1.20;99.90;;;;;;5104088;27;20431;-73
2023/12/03 09:47:14;;;;;;;120.70;27.85;;;1.30;99.90;;;;;;5110082;27;20487;-73
2023/12/03 09:49:45;;;;;;;120.07;27.27;;;1.20;99.90;;;;;;5092838;27;20429;-73
2023/12/03 09:52:11;;;;;;;115.18;26.05;;;1.30;99.90;;;;;;5111200;27;20446;-73
2023/12/03 09:54:38;;;;;;;114.20;27.08;;;1.20;99.90;;;;;;5109936;27;20402;-73
2023/12/03 09:57:06;;;;;;;118.50;27.52;;;1.30;99.90;;;;;;5128639;27;20418;-73
2023/12/03 09:59:37;;;;;;;104.93;25.67;;;1.30;99.90;;;;;;5099286;28;20420;-73
2023/12/03 10:02:04;;;;;;;104.97;25.05;;;1.30;99.90;;;;;;5103870;28;20785;-73
2023/12/03 10:04:30;;;;;;;101.13;25.00;;;1.40;99.90;;;;;;5105311;28;20493;-73
2023/12/03 10:06:58;;;;;;;103.43;26.38;;;1.40;99.90;;;;;;5100138;28;20420;-73
2023/12/03 10:09:25;;;;;;;93.97;24.50;;;1.40;99.90;;;;;;5105319;28;20987;-73
2023/12/03 10:12:00;;;;;;;99.35;25.40;;;1.50;99.90;;;;;;5106730;28;20419;-73
2023/12/03 10:14:26;;;;;;;93.85;26.00;;;1.40;99.90;;;;;;5106632;28;20428;-73
2023/12/03 10:16:52;;;;;;;101.30;26.03;;;1.50;99.90;;;;;;5104981;28;20503;-73
2023/12/03 10:19:28;;;;;;;92.37;25.50;;;1.50;99.90;;;;;;5104783;28;20481;-73
2023/12/03 10:21:55;;;;;;;92.27;26.23;;;1.50;99.90;;;;;;5104660;28;20421;-73
2023/12/03 10:24:21;;;;;;;91.90;24.27;;;1.50;99.90;;;;;;5105686;28;20444;-73
2023/12/03 10:26:51;;;;;;;95.03;26.80;;;1.50;99.90;;;;;;5100977;28;20427;-73
2023/12/03 10:29:19;;;;;;;92.63;25.73;;;1.50;99.90;;;;;;5106298;28;20427;-73
2023/12/03 10:31:56;;;;;;;92.03;25.98;;;1.50;99.90;;;;;;5106090;28;20501;-73
2023/12/03 10:34:21;;;;;;;92.93;26.88;;;1.60;99.90;;;;;;5104990;28;20432;-73
2023/12/03 10:36:47;;;;;;;96.53;26.90;;;1.60;99.90;;;;;;5105190;28;20424;-73
2023/12/03 10:39:17;;;;;;;87.88;25.80;;;1.70;99.90;;;;;;5105342;28;20510;-73
2023/12/03 10:41:47;;;;;;;90.67;26.90;;;1.70;99.90;;;;;;5106398;28;20420;-73
2023/12/03 10:44:21;;;;;;;92.32;26.90;;;1.70;99.90;;;;;;5105762;28;20439;-73
2023/12/03 10:46:47;;;;;;;84.53;26.25;;;1.70;99.90;;;;;;5120716;28;20894;-73
2023/12/03 10:49:15;;;;;;;84.80;27.33;;;1.80;99.90;;;;;;5105787;28;20462;-73
2023/12/03 10:51:46;;;;;;;85.47;26.35;;;1.80;99.90;;;;;;5104386;28;20423;-73
2023/12/03 10:54:12;;;;;;;90.45;26.98;;;1.90;99.90;;;;;;5106777;28;20426;-73
2023/12/03 10:56:40;;;;;;;87.60;27.40;;;2.00;99.90;;;;;;5104636;28;20424;-73
2023/12/03 10:59:10;;;;;;;90.03;27.87;;;2.10;99.90;;;;;;5104224;28;20470;-73
2023/12/03 11:01:47;;;;;;;73.43;26.17;;;2.10;99.90;;;;;;5098613;28;20812;-73
2023/12/03 11:04:41;;;;;;;76.80;26.98;;;2.10;99.90;;;;;;5105699;28;20424;-73
2023/12/03 11:07:07;;;;;;;80.10;27.40;;;2.10;99.90;;;;;;5104841;28;20438;-73
2023/12/03 11:09:38;;;;;;;75.83;27.37;;;2.20;99.90;;;;;;5104549;28;20420;-71
2023/12/03 11:12:06;;;;;;;68.93;27.98;;;2.30;99.90;;;;;;5105667;28;20922;-71
2023/12/03 11:14:32;;;;;;;74.03;29.10;;;2.40;99.90;;;;;;5106589;28;20537;-72
2023/12/03 11:17:32;;;;;;;67.83;28.70;;;2.50;99.90;;;;;;5104611;28;20423;-73
2023/12/03 11:20:05;;;;;;;67.93;27.88;;;2.70;99.90;;;;;;5101164;28;20436;-73
2023/12/03 11:22:52;;;;;;;67.72;27.75;;;3.00;99.90;;;;;;5106586;28;20412;-74
2023/12/03 11:25:26;;;;;;;64.13;27.08;;;3.10;99.90;;;;;;5109601;28;20427;-73
2023/12/03 11:27:52;;;;;;;64.30;27.83;;;3.10;99.90;;;;;;5093023;28;20925;-73
2023/12/03 11:30:40;;;;;;;62.05;26.20;;;3.10;99.90;;;;;;5110001;28;20419;-74
2023/12/03 11:33:19;;;;;;;59.78;25.90;;;3.10;99.90;;;;;;5109665;28;20410;-74
2023/12/03 11:35:46;;;;;;;54.25;25.63;;;3.10;99.90;;;;;;5103529;28;20774;-74
2023/12/03 11:38:28;;;;;;;60.38;27.23;;;3.10;99.80;;;;;;5104443;28;20475;-74
2023/12/03 11:40:55;;;;;;;58.92;26.83;;;3.10;99.60;;;;;;5109676;28;20491;-74
2023/12/03 11:43:30;;;;;;;58.65;26.45;;;3.10;99.20;;;;;;5109631;28;20419;-74
2023/12/03 11:45:56;;;;;;;58.42;26.45;;;3.10;98.60;;;;;;5107991;28;20459;-74
2023/12/03 11:48:30;;;;;;;58.17;26.88;;;3.10;98.60;;;;;;5109691;28;20400;-74
2023/12/03 11:50:59;;;;;;;53.17;25.85;;;3.30;99.30;;;;;;5110672;28;20936;-74
2023/12/03 11:53:52;;;;;;;55.90;26.42;;;3.30;99.00;;;;;;5109786;28;20415;-74
2023/12/03 11:56:21;;;;;;;54.50;26.25;;;3.30;97.20;;;;;;5092573;28;20419;-74
2023/12/03 11:58:47;;;;;;;51.28;25.77;;;3.20;96.50;;;;;;5111866;27;20758;-75
2023/12/03 12:01:13;;;;;;;50.25;26.63;;;3.20;97.00;;;;;;5131496;27;20406;-74
2023/12/03 12:03:39;;;;;;;47.60;25.77;;;3.20;97.50;;;;;;5130915;27;20419;-74
2023/12/03 12:06:04;;;;;;;48.72;26.40;;;3.30;97.10;;;;;;5131487;27;20398;-74
2023/12/03 12:08:31;;;;;;;48.47;26.98;;;3.30;97.10;;;;;;5131099;27;20395;-74
2023/12/03 12:10:57;;;;;;;46.72;27.50;;;3.50;97.70;;;;;;5129473;27;20420;-74
2023/12/03 12:13:23;;;;;;;46.15;26.75;;;3.70;97.20;;;;;;5112483;27;20410;-74
2023/12/03 12:15:49;;;;;;;46.17;26.80;;;3.80;96.90;;;;;;5112593;27;20766;-74
2023/12/03 12:18:19;;;;;;;45.80;26.73;;;3.80;95.50;;;;;;5112019;27;20865;-74
2023/12/03 12:20:44;;;;;;;48.90;27.83;;;3.70;94.30;;;;;;5129038;27;20410;-74
2023/12/03 12:23:10;;;;;;;46.47;27.73;;;3.70;93.30;;;;;;5112832;27;20411;-74
2023/12/03 12:25:36;;;;;;;46.95;27.02;;;3.50;93.90;;;;;;5112518;27;20993;-74